createdAt,value
2018-05-12T00:00:55.785Z,2.00
2018-05-12T00:03:24.206Z,2.10
2018-05-12T00:05:52.599Z,2.00
2018-05-12T00:08:21.626Z,2.17
2018-05-12T00:10:49.885Z,2.10
2018-05-12T00:13:18.189Z,2.57
2018-05-12T00:15:47.230Z,2.10
2018-05-12T00:18:15.482Z,2.17
2018-05-12T00:20:44.515Z,2.20
2018-05-12T00:23:12.802Z,2.40
2018-05-12T00:25:41.056Z,2.40
2018-05-12T00:28:09.331Z,2.03
2018-05-12T00:30:37.629Z,2.47
2018-05-12T00:33:05.886Z,2.50
2018-05-12T00:35:34.149Z,2.30
2018-05-12T00:38:02.440Z,3.03
2018-05-12T00:40:30.688Z,2.77
2018-05-12T00:42:59.095Z,2.07
2018-05-12T00:45:27.331Z,2.67
2018-05-12T00:47:55.586Z,2.80
2018-05-12T00:50:23.883Z,2.37
2018-05-12T00:52:52.138Z,2.00
2018-05-12T00:55:20.384Z,2.63
2018-05-12T00:57:48.718Z,2.10
2018-05-12T01:00:17.002Z,2.23
2018-05-12T01:02:46.017Z,2.37
2018-05-12T01:05:14.304Z,2.27
2018-05-12T01:07:42.552Z,2.13
2018-05-12T01:10:10.814Z,2.37
2018-05-12T01:12:39.885Z,2.30
2018-05-12T01:15:08.140Z,2.23
2018-05-12T01:17:36.464Z,3.22
2018-05-12T01:20:05.512Z,2.20
2018-05-12T01:22:33.765Z,2.33
2018-05-12T01:25:02.017Z,2.40
2018-05-12T01:27:30.284Z,1.90
2018-05-12T01:29:59.304Z,2.22
2018-05-12T01:32:27.651Z,4.60
2018-05-12T01:34:56.704Z,2.80
2018-05-12T01:37:25.732Z,2.80
2018-05-12T01:39:53.995Z,2.50
2018-05-12T01:42:22.274Z,5.27
2018-05-12T01:44:50.536Z,2.60
2018-05-12T01:47:18.781Z,2.60
2018-05-12T01:49:47.056Z,2.60
2018-05-12T01:52:15.314Z,2.93
2018-05-12T01:54:43.572Z,2.95
2018-05-12T01:57:12.609Z,4.05
2018-05-12T01:59:40.868Z,2.60
2018-05-12T02:02:09.114Z,3.03
2018-05-12T02:04:38.151Z,2.37
2018-05-12T02:07:06.398Z,3.23
2018-05-12T02:09:35.417Z,2.83
2018-05-12T02:12:03.716Z,2.97
2018-05-12T02:14:31.976Z,2.40
2018-05-12T02:17:00.224Z,3.10
2018-05-12T02:19:28.494Z,3.07
2018-05-12T02:21:56.754Z,2.23
2018-05-12T02:24:25.017Z,2.50
2018-05-12T02:26:53.326Z,2.97
2018-05-12T02:29:21.658Z,2.77
2018-05-12T02:31:50.684Z,3.10
2018-05-12T02:34:18.986Z,3.07
2018-05-12T02:36:47.285Z,2.57
2018-05-12T02:39:15.577Z,2.60
2018-05-12T02:41:43.850Z,2.80
2018-05-12T02:44:12.110Z,3.77
2018-05-12T02:46:40.385Z,3.67
2018-05-12T02:49:08.686Z,3.23
2018-05-12T02:51:36.930Z,4.03
2018-05-12T02:54:05.190Z,3.40
2018-05-12T02:56:33.495Z,3.57
2018-05-12T02:59:01.826Z,3.47
2018-05-12T03:01:30.101Z,3.60
2018-05-12T03:03:58.382Z,2.77
2018-05-12T03:06:26.695Z,2.80
2018-05-12T03:08:54.962Z,2.53
2018-05-12T03:11:23.225Z,3.00
2018-05-12T03:13:51.478Z,3.20
2018-05-12T03:16:19.731Z,3.20
2018-05-12T03:18:48.001Z,3.30
2018-05-12T03:21:16.268Z,3.17
2018-05-12T03:23:44.521Z,3.50
2018-05-12T03:26:12.790Z,3.10
2018-05-12T03:28:41.079Z,2.50
2018-05-12T03:31:09.365Z,3.40
2018-05-12T03:33:37.630Z,3.10
2018-05-12T03:36:05.889Z,3.33
2018-05-12T03:38:34.172Z,4.03
2018-05-12T03:41:02.473Z,3.70
2018-05-12T03:43:30.724Z,3.63
2018-05-12T03:45:58.992Z,5.97
2018-05-12T03:48:27.272Z,2.90
2018-05-12T03:50:55.546Z,3.90
2018-05-12T03:53:23.793Z,3.07
2018-05-12T03:55:52.070Z,3.70
2018-05-12T03:58:20.340Z,3.30
2018-05-12T04:00:48.609Z,3.50
2018-05-12T04:03:16.913Z,3.00
2018-05-12T04:06:03.451Z,2.93
2018-05-12T04:08:50.182Z,3.20
2018-05-12T04:11:35.966Z,3.53
2018-05-12T04:14:05.022Z,3.40
2018-05-12T04:16:33.331Z,3.83
2018-05-12T04:19:01.594Z,3.83
2018-05-12T04:21:29.869Z,3.70
2018-05-12T04:23:58.160Z,3.50
2018-05-12T04:26:26.414Z,3.53
2018-05-12T04:28:54.695Z,4.23
2018-05-12T04:31:23.080Z,5.80
2018-05-12T04:33:51.476Z,3.50
2018-05-12T04:36:19.721Z,3.57
2018-05-12T04:38:47.977Z,4.17
2018-05-12T04:41:16.989Z,4.47
2018-05-12T04:43:45.278Z,6.57
2018-05-12T04:46:13.538Z,3.20
2018-05-12T04:48:41.840Z,2.70
2018-05-12T04:51:10.095Z,2.97
2018-05-12T04:53:38.357Z,5.27
2018-05-12T04:56:07.392Z,2.87
2018-05-12T04:58:35.661Z,4.00
2018-05-12T05:01:03.953Z,2.90
2018-05-12T05:03:32.212Z,2.83
2018-05-12T05:06:00.501Z,3.70
2018-05-12T05:08:28.765Z,3.83
2018-05-12T05:10:57.074Z,4.63
2018-05-12T05:13:25.375Z,3.40
2018-05-12T05:15:53.617Z,3.93
2018-05-12T05:18:21.867Z,3.63
2018-05-12T05:20:50.141Z,3.47
2018-05-12T05:23:18.397Z,3.20
2018-05-12T05:25:46.694Z,4.63
2018-05-12T05:28:16.089Z,5.72
2018-05-12T05:30:44.420Z,3.73
2018-05-12T05:33:12.667Z,3.90
2018-05-12T05:35:40.944Z,3.87
2018-05-12T05:38:09.220Z,3.33
2018-05-12T05:40:37.482Z,3.60
2018-05-12T05:43:05.745Z,6.60
2018-05-12T05:45:33.997Z,3.20
2018-05-12T05:48:03.015Z,3.03
2018-05-12T05:50:31.286Z,4.00
2018-05-12T05:52:59.536Z,4.00
2018-05-12T05:55:28.578Z,5.85
2018-05-12T05:57:56.896Z,3.17
2018-05-12T06:00:25.145Z,3.30
2018-05-12T06:02:54.161Z,3.50
2018-05-12T06:05:22.425Z,4.37
2018-05-12T06:07:50.677Z,4.70
2018-05-12T06:10:18.933Z,6.90
2018-05-12T06:12:47.193Z,3.87
2018-05-12T06:15:16.305Z,3.90
2018-05-12T06:17:44.548Z,3.70
2018-05-12T06:20:13.578Z,3.73
2018-05-12T06:22:41.825Z,3.63
2018-05-12T06:25:10.843Z,3.20
2018-05-12T06:27:39.112Z,4.70
2018-05-12T06:30:07.361Z,5.27
2018-05-12T06:32:35.609Z,6.62
2018-05-12T06:35:03.885Z,7.70
2018-05-12T06:37:32.208Z,5.50
2018-05-12T06:40:01.228Z,5.50
2018-05-12T06:42:29.489Z,6.72
2018-05-12T06:44:57.754Z,9.10
2018-05-12T06:47:26.768Z,4.90
2018-05-12T06:49:55.034Z,4.90
2018-05-12T06:52:23.291Z,4.10
2018-05-12T06:54:52.307Z,5.93
2018-05-12T06:57:20.579Z,7.28
2018-05-12T06:59:48.827Z,6.67
2018-05-12T07:02:17.849Z,6.80
2018-05-12T07:04:46.119Z,6.20
2018-05-12T07:07:14.381Z,7.93
2018-05-12T07:09:43.396Z,5.70
2018-05-12T07:12:11.661Z,8.05
2018-05-12T07:14:39.953Z,10.40
2018-05-12T07:17:08.213Z,5.03
2018-05-12T07:19:37.253Z,8.40
2018-05-12T07:22:05.503Z,5.83
2018-05-12T07:24:33.765Z,8.33
2018-05-12T07:27:02.841Z,8.45
2018-05-12T07:29:31.944Z,9.50
2018-05-12T07:32:00.124Z,7.82
2018-05-12T07:34:28.392Z,8.60
2018-05-12T07:36:57.414Z,6.13
2018-05-12T07:39:25.707Z,9.23
2018-05-12T07:41:54.698Z,5.17
2018-05-12T07:44:22.953Z,6.20
2018-05-12T07:46:51.237Z,6.77
2018-05-12T07:49:19.506Z,6.87
2018-05-12T07:51:47.756Z,8.80
2018-05-12T07:54:16.774Z,7.60
2018-05-12T07:56:45.041Z,5.90
2018-05-12T07:59:13.305Z,7.33
2018-05-12T08:01:42.321Z,6.23
2018-05-12T08:04:10.597Z,9.40
2018-05-12T08:06:38.868Z,11.03
2018-05-12T08:09:07.129Z,10.70
2018-05-12T08:11:36.184Z,10.00
2018-05-12T08:14:05.208Z,8.80
2018-05-12T08:16:33.454Z,6.37
2018-05-12T08:19:01.731Z,6.07
2018-05-12T08:21:29.977Z,5.50
2018-05-12T08:23:58.229Z,6.60
2018-05-12T08:26:26.504Z,5.60
2018-05-12T08:28:54.781Z,6.47
2018-05-12T08:31:23.029Z,6.13
2018-05-12T08:33:51.352Z,6.20
2018-05-12T08:36:19.597Z,5.83
2018-05-12T08:38:48.625Z,6.83
2018-05-12T08:41:16.897Z,4.57
2018-05-12T08:43:45.153Z,7.07
2018-05-12T08:46:14.177Z,5.87
2018-05-12T08:48:42.452Z,5.60
2018-05-12T08:51:10.745Z,5.63
2018-05-12T08:53:39.006Z,4.03
2018-05-12T08:56:07.277Z,5.27
2018-05-12T08:58:35.536Z,3.17
2018-05-12T09:01:03.784Z,3.70
2018-05-12T09:03:32.833Z,4.70
2018-05-12T09:06:01.076Z,4.40
2018-05-12T09:08:30.125Z,2.57
2018-05-12T09:10:58.390Z,2.60
2018-05-12T09:13:26.651Z,2.40
2018-05-12T09:15:54.896Z,2.07
2018-05-12T09:18:23.938Z,1.57
2018-05-12T09:20:52.190Z,1.33
2018-05-12T09:23:20.481Z,1.13
2018-05-12T09:25:48.772Z,1.83
2018-05-12T09:28:17.020Z,2.27
2018-05-12T09:30:45.276Z,2.03
2018-05-12T09:33:13.556Z,2.23
2018-05-12T09:35:41.830Z,2.07
2018-05-12T09:38:10.080Z,2.03
2018-05-12T09:40:38.356Z,2.50
2018-05-12T09:43:06.639Z,2.90
2018-05-12T09:45:35.669Z,2.87
2018-05-12T09:48:03.937Z,3.37
2018-05-12T09:50:32.186Z,3.80
2018-05-12T09:53:01.220Z,3.33
2018-05-12T09:55:29.492Z,4.30
2018-05-12T09:57:57.752Z,3.60
2018-05-12T10:00:26.005Z,4.40
2018-05-12T10:02:55.049Z,3.40
2018-05-12T10:05:23.300Z,2.20
2018-05-12T10:07:51.552Z,2.00
2018-05-12T10:10:20.613Z,2.13
2018-05-12T10:12:48.953Z,2.80
2018-05-12T10:15:17.121Z,1.97
2018-05-12T10:17:45.386Z,1.80
2018-05-12T10:20:14.402Z,2.80
2018-05-12T10:22:42.653Z,2.13
2018-05-12T10:25:11.685Z,2.10
2018-05-12T10:27:39.944Z,2.03
2018-05-12T10:30:08.201Z,2.10
2018-05-12T10:32:37.236Z,2.13
2018-05-12T10:35:05.493Z,2.40
2018-05-12T10:37:33.744Z,1.97
2018-05-12T10:40:02.870Z,2.30
2018-05-12T10:42:31.142Z,2.30
2018-05-12T10:44:59.396Z,1.33
2018-05-12T10:47:28.589Z,2.10
2018-05-12T10:49:57.634Z,3.13
2018-05-12T10:52:25.989Z,2.00
2018-05-12T10:54:54.266Z,2.80
2018-05-12T10:57:22.529Z,1.63
2018-05-12T10:59:50.782Z,1.90
2018-05-12T11:02:19.841Z,2.17
2018-05-12T11:04:48.100Z,1.83
2018-05-12T11:07:16.358Z,1.87
2018-05-12T11:09:44.739Z,2.00
2018-05-12T11:12:12.888Z,2.20
2018-05-12T11:14:41.940Z,1.80
2018-05-12T11:17:10.210Z,2.95
2018-05-12T11:19:38.464Z,2.67
2018-05-12T11:22:06.712Z,2.90
2018-05-12T11:24:35.752Z,1.60
2018-05-12T11:27:04.061Z,1.87
2018-05-12T11:29:32.379Z,1.87
2018-05-12T11:32:00.645Z,2.40
2018-05-12T11:34:28.898Z,1.80
2018-05-12T11:36:57.233Z,2.17
2018-05-12T11:39:25.537Z,2.20
2018-05-12T11:41:53.747Z,2.80
2018-05-12T11:44:22.863Z,2.60
2018-05-12T11:46:51.138Z,1.60
2018-05-12T11:49:19.393Z,2.30
2018-05-12T11:51:48.418Z,2.97
2018-05-12T11:54:16.681Z,1.53
2018-05-12T11:56:44.940Z,1.47
2018-05-12T11:59:13.969Z,1.83
2018-05-12T12:01:42.302Z,3.93
2018-05-12T12:04:11.322Z,1.50
2018-05-12T12:06:39.618Z,1.90
2018-05-12T12:09:07.932Z,2.67
2018-05-12T12:11:36.188Z,2.50
2018-05-12T12:14:04.533Z,2.00
2018-05-12T12:16:32.873Z,1.80
2018-05-12T12:19:01.052Z,1.67
2018-05-12T12:21:30.098Z,1.60
2018-05-12T12:23:58.362Z,1.43
2018-05-12T12:26:26.616Z,1.40
2018-05-12T12:28:54.873Z,1.63
2018-05-12T12:31:23.905Z,1.50
2018-05-12T12:33:52.203Z,1.50
2018-05-12T12:36:20.454Z,1.50
2018-05-12T12:38:48.728Z,1.70
2018-05-12T12:41:16.981Z,1.80
2018-05-12T12:43:46.095Z,1.90
2018-05-12T12:46:14.373Z,1.90
2018-05-12T12:48:42.632Z,1.53
2018-05-12T12:51:11.729Z,1.60
2018-05-12T12:53:39.997Z,1.60
2018-05-12T12:56:09.110Z,1.80
2018-05-12T12:58:37.370Z,1.80
2018-05-12T13:01:06.484Z,1.63
2018-05-12T13:03:34.773Z,1.57
2018-05-12T13:06:03.037Z,1.30
2018-05-12T13:08:31.334Z,1.60
2018-05-12T13:10:59.640Z,1.87
2018-05-12T13:13:28.000Z,2.90
2018-05-12T13:15:56.315Z,1.63
2018-05-12T13:18:25.661Z,1.50
2018-05-12T13:20:53.917Z,1.60
2018-05-12T13:23:23.023Z,1.33
2018-05-12T13:25:51.268Z,1.53
2018-05-12T13:28:20.389Z,1.40
2018-05-12T13:30:48.658Z,1.60
2018-05-12T13:33:16.913Z,4.27
2018-05-12T13:35:45.194Z,1.80
2018-05-12T13:38:13.454Z,1.70
2018-05-12T13:40:41.708Z,1.50
2018-05-12T13:43:09.966Z,1.87
2018-05-12T13:45:38.277Z,1.80
2018-05-12T13:48:06.496Z,1.67
2018-05-12T13:50:34.749Z,1.30
2018-05-12T13:53:03.869Z,1.40
2018-05-12T13:55:32.124Z,1.43
2018-05-12T13:58:01.249Z,3.67
2018-05-12T14:00:29.525Z,2.50
2018-05-12T14:02:57.772Z,2.67
2018-05-12T14:05:26.784Z,1.20
2018-05-12T14:07:55.057Z,1.30
2018-05-12T14:10:23.344Z,7.43
2018-05-12T14:12:51.591Z,8.70
2018-05-12T14:15:20.661Z,1.80
2018-05-12T14:17:48.994Z,1.50
2018-05-12T14:20:17.267Z,1.00
2018-05-12T14:22:45.541Z,1.30
2018-05-12T14:25:13.801Z,1.27
2018-05-12T14:27:42.821Z,1.00
2018-05-12T14:30:11.192Z,1.30
2018-05-12T14:32:39.441Z,1.10
2018-05-12T14:35:08.452Z,1.30
2018-05-12T14:37:36.718Z,0.90
2018-05-12T14:40:05.764Z,1.00
2018-05-12T14:42:34.025Z,1.20
2018-05-12T14:45:02.388Z,1.80
2018-05-12T14:47:30.642Z,1.10
2018-05-12T14:49:59.663Z,1.20
2018-05-12T14:52:27.926Z,1.00
2018-05-12T14:54:56.178Z,1.63
2018-05-12T14:57:25.184Z,1.00
2018-05-12T14:59:54.293Z,1.80
2018-05-12T15:02:22.624Z,1.10
2018-05-12T15:04:50.825Z,1.30
2018-05-12T15:07:19.864Z,1.00
2018-05-12T15:09:48.226Z,1.17
2018-05-12T15:12:16.521Z,0.90
2018-05-12T15:14:44.835Z,0.80
2018-05-12T15:17:13.024Z,1.20
2018-05-12T15:19:42.051Z,1.00
2018-05-12T15:22:10.313Z,0.90
2018-05-12T15:24:38.566Z,1.00
2018-05-12T15:27:07.690Z,1.40
2018-05-12T15:29:35.968Z,0.90
2018-05-12T15:32:04.250Z,0.97
2018-05-12T15:34:32.517Z,0.90
2018-05-12T15:37:00.789Z,1.40
2018-05-12T15:39:29.175Z,0.93
2018-05-12T15:41:57.453Z,1.10
2018-05-12T15:44:25.721Z,1.20
2018-05-12T15:46:53.973Z,1.20
2018-05-12T15:49:22.287Z,1.20
2018-05-12T15:51:50.564Z,1.10
2018-05-12T15:54:18.805Z,1.00
2018-05-12T15:56:47.923Z,1.00
2018-05-12T15:59:16.197Z,1.20
2018-05-12T16:01:44.492Z,1.03
2018-05-12T16:04:12.756Z,1.10
2018-05-12T16:06:41.038Z,1.30
2018-05-12T16:09:09.308Z,1.00
2018-05-12T16:11:37.576Z,1.20
2018-05-12T16:14:05.852Z,1.10
2018-05-12T16:16:34.104Z,1.27
2018-05-12T16:19:03.151Z,3.17
2018-05-12T16:21:31.416Z,2.07
2018-05-12T16:23:59.685Z,1.10
2018-05-12T16:26:27.944Z,1.27
2018-05-12T16:28:57.062Z,1.23
2018-05-12T16:31:25.368Z,1.17
2018-05-12T16:33:53.613Z,1.10
2018-05-12T16:36:21.873Z,1.23
2018-05-12T16:38:50.123Z,1.10
2018-05-12T16:41:18.383Z,4.07
2018-05-12T16:43:46.718Z,2.20
2018-05-12T16:46:14.964Z,1.10
2018-05-12T16:48:44.081Z,1.10
2018-05-12T16:51:12.443Z,1.10
2018-05-12T16:53:41.361Z,1.00
2018-05-12T16:56:09.603Z,1.37
2018-05-12T16:58:38.636Z,1.10
2018-05-12T17:01:06.886Z,1.23
2018-05-12T17:03:37.146Z,1.17
2018-05-12T17:06:05.502Z,1.23
2018-05-12T17:08:33.776Z,1.30
2018-05-12T17:11:02.024Z,1.10
2018-05-12T17:13:31.054Z,1.80
2018-05-12T17:15:59.304Z,1.40
2018-05-12T17:18:28.413Z,1.40
2018-05-12T17:20:56.681Z,1.50
2018-05-12T17:23:24.948Z,1.33
2018-05-12T17:25:53.969Z,1.30
2018-05-12T17:28:22.249Z,1.47
2018-05-12T17:30:50.534Z,1.30
2018-05-12T17:33:18.801Z,1.30
2018-05-12T17:35:47.163Z,1.90
2018-05-12T17:38:15.413Z,1.23
2018-05-12T17:40:43.730Z,1.30
2018-05-12T17:43:12.100Z,1.20
2018-05-12T17:45:40.357Z,1.50
2018-05-12T17:48:09.369Z,1.40
2018-05-12T17:50:37.634Z,1.40
2018-05-12T17:53:06.740Z,1.10
2018-05-12T17:55:35.054Z,1.40
2018-05-12T17:58:04.108Z,1.30
2018-05-12T18:00:32.372Z,1.40
2018-05-12T18:03:01.388Z,1.33
2018-05-12T18:05:29.663Z,1.17
2018-05-12T18:07:57.910Z,1.10
2018-05-12T18:10:27.031Z,1.62
2018-05-12T18:12:55.309Z,1.40
2018-05-12T18:15:23.560Z,1.77
2018-05-12T18:17:52.585Z,1.40
2018-05-12T18:20:20.851Z,2.10
2018-05-12T18:22:49.865Z,1.43
2018-05-12T18:25:18.116Z,1.40
2018-05-12T18:27:46.385Z,1.40
2018-05-12T18:30:15.493Z,2.30
2018-05-12T18:32:43.771Z,2.50
2018-05-12T18:35:12.788Z,1.90
2018-05-12T18:37:41.061Z,2.30
2018-05-12T18:40:09.327Z,1.67
2018-05-12T18:42:37.590Z,1.93
2018-05-12T18:45:05.833Z,1.97
2018-05-12T18:47:34.145Z,1.30
2018-05-12T18:50:02.417Z,1.90
2018-05-12T18:52:30.668Z,1.80
2018-05-12T18:54:59.694Z,1.90
2018-05-12T18:57:27.953Z,1.70
2018-05-12T18:59:57.053Z,1.80
2018-05-12T19:02:25.234Z,1.70
2018-05-12T19:04:53.618Z,1.50
2018-05-12T19:07:21.889Z,1.50
2018-05-12T19:09:50.149Z,2.00
2018-05-12T19:12:19.177Z,2.10
2018-05-12T19:14:47.441Z,2.10
2018-05-12T19:17:15.702Z,1.90
2018-05-12T19:19:44.814Z,2.17
2018-05-12T19:22:13.064Z,2.00
2018-05-12T19:24:42.077Z,2.30
2018-05-12T19:27:10.341Z,1.60
2018-05-12T19:29:39.392Z,1.80
2018-05-12T19:32:07.654Z,3.20
2018-05-12T19:34:36.028Z,2.17
2018-05-12T19:37:04.334Z,3.50
2018-05-12T19:39:32.701Z,2.20
2018-05-12T19:42:01.001Z,2.13
2018-05-12T19:44:29.296Z,2.03
2018-05-12T19:46:58.308Z,2.10
2018-05-12T19:49:26.679Z,2.55
2018-05-12T19:51:55.142Z,2.03
2018-05-12T19:54:23.804Z,2.17
2018-05-12T19:56:53.276Z,1.70
2018-05-12T19:59:21.944Z,1.67
2018-05-12T20:01:50.273Z,1.73
2018-05-12T20:04:18.549Z,1.80
2018-05-12T20:06:46.826Z,2.20
2018-05-12T20:09:15.089Z,1.87
2018-05-12T20:11:43.442Z,2.20
2018-05-12T20:14:11.802Z,2.10
2018-05-12T20:16:40.103Z,1.97
2018-05-12T20:19:08.494Z,2.10
2018-05-12T20:21:36.765Z,2.10
2018-05-12T20:24:05.106Z,3.87
2018-05-12T20:26:33.523Z,2.37
2018-05-12T20:29:01.987Z,1.90
2018-05-12T20:31:30.330Z,1.93
2018-05-12T20:33:59.545Z,2.20
2018-05-12T20:36:27.849Z,2.60
2018-05-12T20:38:56.221Z,2.00
2018-05-12T20:41:24.585Z,2.40
2018-05-12T20:43:52.864Z,2.20
2018-05-12T20:46:21.233Z,2.20
2018-05-12T20:48:49.571Z,1.93
2018-05-12T20:51:17.898Z,2.20
2018-05-12T20:53:46.258Z,2.20
2018-05-12T20:56:14.694Z,2.43
2018-05-12T20:58:43.005Z,2.10
2018-05-12T21:01:12.099Z,2.27
2018-05-12T21:03:41.177Z,2.07
2018-05-12T21:06:09.432Z,2.50
2018-05-12T21:08:37.725Z,2.27
2018-05-12T21:11:05.997Z,2.30
2018-05-12T21:13:34.329Z,2.40
2018-05-12T21:16:02.620Z,2.60
2018-05-12T21:18:30.892Z,2.33
2018-05-12T21:20:59.176Z,2.50
2018-05-12T21:23:27.457Z,2.73
2018-05-12T21:25:55.734Z,2.60
2018-05-12T21:28:24.085Z,3.00
2018-05-12T21:30:53.321Z,3.00
2018-05-12T21:33:21.666Z,3.30
2018-05-12T21:35:49.928Z,5.60
2018-05-12T21:38:18.177Z,3.20
2018-05-12T21:40:46.495Z,3.60
2018-05-12T21:43:14.743Z,3.63
2018-05-12T21:45:43.761Z,3.73
2018-05-12T21:48:12.049Z,4.00
2018-05-12T21:50:40.303Z,4.43
2018-05-12T21:53:09.411Z,4.90
2018-05-12T21:55:37.680Z,4.23
2018-05-12T21:58:05.946Z,4.90
2018-05-12T22:00:35.062Z,4.57
2018-05-12T22:03:03.332Z,5.20
2018-05-12T22:05:31.590Z,4.50
2018-05-12T22:08:00.813Z,4.60
2018-05-12T22:10:29.087Z,4.30
2018-05-12T22:12:57.361Z,4.77
2018-05-12T22:15:25.625Z,4.67
2018-05-12T22:17:54.652Z,4.60
2018-05-12T22:20:23.010Z,4.00
2018-05-12T22:22:51.281Z,4.40
2018-05-12T22:25:19.557Z,4.30
2018-05-12T22:27:47.837Z,4.40
2018-05-12T22:30:16.123Z,3.97
2018-05-12T22:32:44.377Z,3.67
2018-05-12T22:35:13.401Z,4.10
2018-05-12T22:37:41.657Z,4.70
2018-05-12T22:40:09.966Z,3.55
2018-05-12T22:42:38.219Z,3.57
2018-05-12T22:45:06.496Z,3.63
2018-05-12T22:47:34.768Z,3.80
2018-05-12T22:50:03.048Z,4.50
2018-05-12T22:52:31.326Z,4.60
2018-05-12T22:54:59.588Z,4.00
2018-05-12T22:57:27.832Z,5.00
2018-05-12T22:59:56.086Z,4.90
2018-05-12T23:02:24.437Z,5.13
2018-05-12T23:04:52.701Z,4.50
2018-05-12T23:07:20.949Z,4.77
2018-05-12T23:09:49.984Z,5.37
2018-05-12T23:12:18.360Z,5.50
2018-05-12T23:14:46.600Z,4.93
2018-05-12T23:17:15.716Z,5.10
2018-05-12T23:19:43.976Z,5.10
2018-05-12T23:22:12.998Z,5.00
2018-05-12T23:24:41.272Z,5.27
2018-05-12T23:27:09.545Z,5.13
2018-05-12T23:29:37.802Z,5.23
2018-05-12T23:32:06.841Z,4.97
2018-05-12T23:34:35.200Z,5.00
2018-05-12T23:37:03.457Z,5.00
2018-05-12T23:39:32.163Z,5.17
2018-05-12T23:42:00.412Z,5.13
2018-05-12T23:44:29.428Z,5.20
2018-05-12T23:46:57.687Z,5.50
2018-05-12T23:49:25.988Z,5.53
2018-05-12T23:51:54.237Z,5.50
2018-05-12T23:54:23.278Z,5.27
2018-05-12T23:56:51.622Z,5.80
2018-05-12T23:59:19.877Z,5.27
